createdAt,value
2022-10-04T00:01:27.534Z,80.53
2022-10-04T00:04:08.954Z,80.11
2022-10-04T00:06:38.288Z,80.61
2022-10-04T00:09:12.065Z,79.82
2022-10-04T00:11:44.845Z,80.25
2022-10-04T00:14:20.886Z,80.23
2022-10-04T00:16:49.452Z,80.61
2022-10-04T00:19:16.152Z,79.73
2022-10-04T00:21:56.398Z,80.46
2022-10-04T00:24:31.605Z,79.79
2022-10-04T00:27:24.734Z,79.79
2022-10-04T00:30:03.936Z,80.00
2022-10-04T00:32:41.764Z,79.77
2022-10-04T00:35:27.311Z,79.57
2022-10-04T00:38:15.733Z,80.00
2022-10-04T00:40:54.338Z,79.78
2022-10-04T00:43:37.794Z,79.85
2022-10-04T00:46:14.028Z,79.80
2022-10-04T00:48:46.624Z,79.82
2022-10-04T00:51:22.659Z,79.92
2022-10-04T00:54:05.883Z,79.69
2022-10-04T00:56:41.036Z,79.21
2022-10-04T00:59:43.413Z,79.47
2022-10-04T01:02:16.434Z,79.59
2022-10-04T01:04:49.960Z,79.50
2022-10-04T01:07:28.852Z,79.12
2022-10-04T01:10:01.727Z,79.37
2022-10-04T01:12:40.792Z,79.81
2022-10-04T01:15:35.462Z,79.12
2022-10-04T01:18:15.218Z,79.34
2022-10-04T01:20:57.036Z,79.45
2022-10-04T01:23:40.638Z,79.92
2022-10-04T01:26:30.009Z,80.12
2022-10-04T01:29:00.876Z,80.21
2022-10-04T01:31:29.433Z,79.82
2022-10-04T01:33:57.074Z,79.79
2022-10-04T01:36:23.988Z,80.20
2022-10-04T01:38:51.684Z,79.71
2022-10-04T01:41:25.451Z,80.13
2022-10-04T01:43:58.659Z,79.97
2022-10-04T01:46:36.436Z,79.41
2022-10-04T01:49:08.139Z,80.11
2022-10-04T01:51:42.248Z,79.50
2022-10-04T01:54:15.045Z,79.84
2022-10-04T01:56:46.884Z,80.19
2022-10-04T01:59:19.798Z,79.80
2022-10-04T02:02:04.710Z,80.25
2022-10-04T02:04:35.636Z,80.42
2022-10-04T02:07:04.069Z,80.48
2022-10-04T02:09:38.663Z,80.35
2022-10-04T02:12:06.629Z,80.61
2022-10-04T02:14:36.881Z,80.80
2022-10-04T02:17:10.635Z,81.01
2022-10-04T02:19:42.309Z,81.27
2022-10-04T02:22:11.484Z,81.65
2022-10-04T02:24:43.180Z,81.62
2022-10-04T02:27:10.233Z,82.07
2022-10-04T02:29:37.094Z,81.74
2022-10-04T02:32:24.999Z,82.18
2022-10-04T02:34:54.894Z,81.98
2022-10-04T02:37:27.277Z,82.48
2022-10-04T02:40:03.299Z,82.44
2022-10-04T02:43:14.912Z,82.59
2022-10-04T02:45:53.096Z,82.73
2022-10-04T02:48:26.099Z,82.72
2022-10-04T02:50:56.018Z,83.21
2022-10-04T02:53:38.324Z,83.32
2022-10-04T02:56:05.833Z,83.13
2022-10-04T02:58:32.879Z,83.48
2022-10-04T03:01:00.956Z,83.97
2022-10-04T03:03:47.557Z,83.63
2022-10-04T03:06:19.181Z,84.17
2022-10-04T03:08:51.359Z,84.30
2022-10-04T03:11:21.817Z,83.96
2022-10-04T03:13:56.542Z,84.05
2022-10-04T03:16:25.033Z,83.55
2022-10-04T03:18:56.710Z,83.69
2022-10-04T03:21:25.355Z,83.88
2022-10-04T03:23:53.615Z,83.68
2022-10-04T03:26:38.704Z,84.12
2022-10-04T03:29:10.244Z,83.71
2022-10-04T03:31:43.133Z,84.16
2022-10-04T03:34:16.284Z,83.69
2022-10-04T03:36:46.353Z,84.09
2022-10-04T03:39:27.326Z,83.76
2022-10-04T03:41:54.623Z,83.54
2022-10-04T03:44:23.306Z,83.33
2022-10-04T03:46:50.137Z,83.77
2022-10-04T03:49:26.212Z,83.28
2022-10-04T03:51:53.453Z,83.22
2022-10-04T03:54:25.584Z,83.23
2022-10-04T03:56:54.838Z,83.38
2022-10-04T03:59:24.923Z,83.43
2022-10-04T04:02:12.466Z,83.78
2022-10-04T04:04:52.668Z,83.90
2022-10-04T04:07:34.595Z,83.85
2022-10-04T04:10:18.459Z,84.22
2022-10-04T04:13:09.417Z,83.65
2022-10-04T04:15:36.578Z,83.57
2022-10-04T04:18:07.840Z,83.39
2022-10-04T04:20:38.418Z,83.05
2022-10-04T04:23:12.592Z,82.89
2022-10-04T04:25:42.187Z,82.88
2022-10-04T04:28:52.074Z,83.26
2022-10-04T04:31:21.102Z,82.77
2022-10-04T04:34:00.529Z,83.19
2022-10-04T04:36:31.009Z,82.95
2022-10-04T04:39:44.767Z,83.34
2022-10-04T04:42:19.422Z,83.30
2022-10-04T04:45:17.417Z,83.90
2022-10-04T04:47:53.338Z,83.54
2022-10-04T04:50:23.823Z,83.38
2022-10-04T04:52:58.816Z,83.56
2022-10-04T04:56:03.254Z,83.68
2022-10-04T04:58:45.945Z,83.86
2022-10-04T05:01:24.205Z,83.72
2022-10-04T05:04:23.853Z,84.06
2022-10-04T05:07:16.358Z,83.83
2022-10-04T05:09:43.383Z,84.03
2022-10-04T05:12:17.008Z,83.94
2022-10-04T05:14:50.763Z,83.57
2022-10-04T05:17:24.907Z,83.49
2022-10-04T05:19:57.811Z,83.79
2022-10-04T05:22:47.785Z,83.95
2022-10-04T05:25:26.579Z,83.51
2022-10-04T05:27:54.681Z,83.69
2022-10-04T05:30:57.766Z,83.98
2022-10-04T05:33:36.711Z,84.03
2022-10-04T05:36:13.763Z,84.39
2022-10-04T05:38:46.668Z,84.21
2022-10-04T05:41:42.380Z,84.28
2022-10-04T05:44:27.559Z,84.40
2022-10-04T05:47:01.515Z,84.37
2022-10-04T05:49:34.941Z,84.29
2022-10-04T05:52:04.036Z,84.29
2022-10-04T05:54:35.694Z,84.74
2022-10-04T05:57:25.853Z,84.86
2022-10-04T06:00:03.939Z,85.11
2022-10-04T06:02:57.857Z,85.02
2022-10-04T06:05:29.180Z,84.79
2022-10-04T06:08:33.758Z,84.38
2022-10-04T06:11:22.603Z,84.67
2022-10-04T06:14:22.560Z,84.08
2022-10-04T06:17:14.685Z,84.27
2022-10-04T06:19:51.236Z,84.22
2022-10-04T06:22:20.396Z,84.84
2022-10-04T06:24:58.947Z,84.63
2022-10-04T06:27:54.625Z,84.65
2022-10-04T06:30:21.912Z,85.38
2022-10-04T06:33:45.951Z,85.19
2022-10-04T06:36:29.517Z,84.92
2022-10-04T06:39:20.935Z,85.09
2022-10-04T06:42:35.370Z,84.05
2022-10-04T06:45:30.268Z,84.29
2022-10-04T06:48:06.389Z,84.42
2022-10-04T06:50:49.951Z,84.26
2022-10-04T06:53:26.809Z,84.42
2022-10-04T06:56:12.177Z,83.93
2022-10-04T06:58:54.154Z,83.91
2022-10-04T07:01:29.417Z,84.08
2022-10-04T07:04:21.964Z,84.85
2022-10-04T07:07:20.366Z,84.54
2022-10-04T07:09:48.872Z,84.29
2022-10-04T07:12:17.927Z,83.95
2022-10-04T07:14:56.154Z,82.87
2022-10-04T07:17:37.860Z,82.93
2022-10-04T07:20:06.763Z,82.17
2022-10-04T07:22:47.626Z,81.95
2022-10-04T07:25:28.983Z,81.20
2022-10-04T07:28:29.437Z,81.47
2022-10-04T07:31:03.747Z,80.82
2022-10-04T07:33:35.800Z,81.18
2022-10-04T07:36:24.403Z,79.63
2022-10-04T07:39:00.186Z,80.77
2022-10-04T07:41:33.940Z,80.36
2022-10-04T07:44:16.102Z,79.54
2022-10-04T07:46:43.046Z,80.32
2022-10-04T07:49:21.717Z,79.75
2022-10-04T07:52:10.615Z,78.95
2022-10-04T07:54:56.362Z,79.00
2022-10-04T07:58:08.362Z,78.86
2022-10-04T08:01:24.881Z,78.56
2022-10-04T08:04:18.750Z,76.76
2022-10-04T08:06:59.365Z,77.22
2022-10-04T08:10:08.334Z,77.58
2022-10-04T08:12:58.484Z,76.00
2022-10-04T08:15:36.051Z,77.27
2022-10-04T08:18:10.189Z,76.72
2022-10-04T08:21:01.852Z,77.04
2022-10-04T08:24:02.818Z,76.92
2022-10-04T08:26:53.682Z,76.86
2022-10-04T08:29:43.790Z,76.61
2022-10-04T08:32:29.612Z,76.14
2022-10-04T08:35:21.361Z,74.78
2022-10-04T08:38:07.073Z,75.29
2022-10-04T08:41:01.981Z,74.83
2022-10-04T08:43:43.139Z,74.71
2022-10-04T08:46:10.104Z,75.59
2022-10-04T08:49:18.966Z,75.55
2022-10-04T08:52:28.674Z,73.10
2022-10-04T08:55:29.063Z,73.51
2022-10-04T08:58:34.255Z,74.44
2022-10-04T09:01:39.785Z,73.41
2022-10-04T09:04:33.745Z,73.72
2022-10-04T09:07:28.654Z,74.21
2022-10-04T09:10:14.391Z,73.24
2022-10-04T09:13:22.218Z,74.17
2022-10-04T09:15:53.229Z,74.35
2022-10-04T09:18:48.409Z,74.74
2022-10-04T09:21:29.017Z,74.33
2022-10-04T09:24:17.730Z,74.95
2022-10-04T09:26:54.250Z,74.95
2022-10-04T09:29:37.537Z,74.42
2022-10-04T09:32:32.702Z,73.75
2022-10-04T09:35:18.701Z,74.20
2022-10-04T09:38:23.286Z,72.31
2022-10-04T09:41:01.089Z,73.76
2022-10-04T09:43:28.415Z,73.42
2022-10-04T09:46:37.517Z,72.18
2022-10-04T09:49:27.558Z,73.15
2022-10-04T09:52:05.857Z,73.91
2022-10-04T09:54:59.212Z,74.64
2022-10-04T09:57:29.808Z,74.25
2022-10-04T10:00:26.924Z,73.84
2022-10-04T10:03:17.414Z,72.87
2022-10-04T10:06:14.741Z,73.21
2022-10-04T10:09:01.999Z,73.08
2022-10-04T10:12:23.107Z,72.25
2022-10-04T10:15:13.322Z,71.35
2022-10-04T10:17:48.497Z,71.99
2022-10-04T10:20:23.091Z,72.49
2022-10-04T10:23:12.462Z,70.91
2022-10-04T10:26:33.151Z,70.60
2022-10-04T10:29:32.541Z,70.56
2022-10-04T10:32:23.465Z,70.62
2022-10-04T10:34:59.806Z,70.54
2022-10-04T10:37:39.567Z,70.12
2022-10-04T10:40:41.118Z,70.75
2022-10-04T10:43:26.996Z,70.88
2022-10-04T10:45:55.521Z,69.33
2022-10-04T10:48:22.505Z,69.90
2022-10-04T10:51:23.162Z,70.04
2022-10-04T10:54:30.383Z,70.31
2022-10-04T10:57:07.063Z,70.44
2022-10-04T11:00:12.254Z,69.61
2022-10-04T11:02:50.016Z,70.85
2022-10-04T11:06:01.623Z,71.35
2022-10-04T11:08:57.091Z,70.18
2022-10-04T11:12:01.103Z,70.44
2022-10-04T11:14:53.593Z,70.19
2022-10-04T11:17:38.812Z,70.40
2022-10-04T11:20:24.389Z,70.57
2022-10-04T11:23:07.493Z,70.68
2022-10-04T11:25:52.052Z,68.78
2022-10-04T11:28:46.743Z,70.42
2022-10-04T11:31:32.654Z,71.46
2022-10-04T11:34:18.421Z,72.70
2022-10-04T11:37:12.293Z,72.96
2022-10-04T11:39:57.959Z,73.43
2022-10-04T11:42:53.083Z,73.79
2022-10-04T11:45:34.072Z,74.40
2022-10-04T11:48:15.999Z,75.11
2022-10-04T11:51:03.239Z,75.73
2022-10-04T11:53:58.721Z,75.17
2022-10-04T11:56:45.634Z,76.59
2022-10-04T11:59:28.535Z,77.10
2022-10-04T12:02:42.185Z,77.08
2022-10-04T12:05:18.355Z,77.54
2022-10-04T12:08:02.076Z,78.41
2022-10-04T12:10:36.207Z,79.41
2022-10-04T12:13:21.537Z,79.42
2022-10-04T12:16:06.945Z,78.82
2022-10-04T12:18:52.171Z,78.94
2022-10-04T12:21:36.801Z,78.47
2022-10-04T12:24:42.163Z,77.66
2022-10-04T12:27:13.634Z,77.91
2022-10-04T12:30:01.055Z,76.63
2022-10-04T12:32:43.221Z,74.95
2022-10-04T12:35:41.041Z,74.22
2022-10-04T12:38:31.865Z,74.60
2022-10-04T12:41:17.488Z,74.52
2022-10-04T12:44:32.196Z,71.62
2022-10-04T12:47:29.773Z,72.16
2022-10-04T12:50:22.343Z,71.79
2022-10-04T12:53:32.186Z,70.72
2022-10-04T12:56:08.222Z,71.36
2022-10-04T12:58:58.573Z,71.74
2022-10-04T13:01:37.678Z,71.85
2022-10-04T13:04:14.886Z,70.41
2022-10-04T13:07:08.266Z,71.41
2022-10-04T13:10:05.414Z,71.90
2022-10-04T13:12:47.104Z,72.37
2022-10-04T13:18:45.101Z,72.47
2022-10-04T13:21:36.616Z,72.92
2022-10-04T13:24:53.930Z,72.78
2022-10-04T13:27:59.491Z,72.25
2022-10-04T13:30:35.905Z,72.26
2022-10-04T13:33:06.031Z,72.20
2022-10-04T13:36:08.669Z,70.93
2022-10-04T13:38:38.069Z,70.18
2022-10-04T13:41:04.833Z,70.18
2022-10-04T13:43:56.613Z,69.76
2022-10-04T13:46:41.817Z,69.28
2022-10-04T13:49:49.145Z,69.55
2022-10-04T13:52:41.216Z,70.60
2022-10-04T13:55:26.733Z,71.48
2022-10-04T13:57:58.337Z,72.11
2022-10-04T14:00:53.051Z,71.19
2022-10-04T14:03:33.846Z,70.99
2022-10-04T14:06:19.459Z,71.44
2022-10-04T14:09:01.192Z,71.05
2022-10-04T14:11:54.481Z,70.93
2022-10-04T14:14:21.326Z,71.06
2022-10-04T14:17:32.731Z,70.76
2022-10-04T14:20:08.453Z,70.44
2022-10-04T14:23:12.329Z,70.35
2022-10-04T14:25:58.479Z,70.59
2022-10-04T14:28:53.317Z,71.04
2022-10-04T14:31:51.069Z,71.28
2022-10-04T14:34:55.265Z,71.46
2022-10-04T14:38:00.532Z,71.86
2022-10-04T14:40:37.468Z,71.30
2022-10-04T14:43:41.739Z,71.60
2022-10-04T14:46:56.051Z,71.53
2022-10-04T14:50:00.895Z,71.15
2022-10-04T14:52:36.100Z,71.20
2022-10-04T14:55:38.448Z,72.11
2022-10-04T14:58:23.947Z,72.12
2022-10-04T15:01:12.518Z,72.03
2022-10-04T15:03:55.349Z,72.40
2022-10-04T15:06:49.151Z,73.02
2022-10-04T15:09:25.281Z,73.31
2022-10-04T15:14:58.510Z,74.17
2022-10-04T15:17:38.074Z,73.65
2022-10-04T15:20:20.183Z,73.33
2022-10-04T15:22:54.257Z,73.11
2022-10-04T15:25:43.082Z,72.79
2022-10-04T15:28:52.487Z,72.50
2022-10-04T15:31:39.146Z,72.72
2022-10-04T15:34:47.589Z,72.68
2022-10-04T15:37:25.360Z,72.72
2022-10-04T15:40:23.350Z,72.54
2022-10-04T15:43:10.260Z,72.35
2022-10-04T15:46:03.605Z,72.41
2022-10-04T15:49:08.339Z,72.77
2022-10-04T15:51:49.512Z,73.12
2022-10-04T15:54:40.197Z,73.43
2022-10-04T15:57:38.916Z,73.39
2022-10-04T16:00:41.130Z,73.63
2022-10-04T16:03:50.464Z,73.85
2022-10-04T16:06:25.299Z,74.01
2022-10-04T16:09:11.015Z,74.70
2022-10-04T16:11:50.800Z,74.67
2022-10-04T16:14:52.418Z,75.08
2022-10-04T16:17:22.759Z,75.40
2022-10-04T16:20:00.080Z,75.69
2022-10-04T16:22:30.436Z,76.00
2022-10-04T16:25:25.769Z,75.83
2022-10-04T16:27:56.041Z,76.17
2022-10-04T16:30:28.847Z,75.85
2022-10-04T16:32:58.851Z,76.15
2022-10-04T16:35:35.010Z,76.19
2022-10-04T16:38:14.449Z,76.05
2022-10-04T16:40:53.204Z,75.90
2022-10-04T16:43:20.400Z,75.96
2022-10-04T16:46:06.094Z,76.12
2022-10-04T16:48:47.060Z,76.08
2022-10-04T16:51:16.846Z,75.84
2022-10-04T16:54:04.643Z,75.34
2022-10-04T16:56:57.384Z,75.67
2022-10-04T16:59:36.824Z,75.58
2022-10-04T17:02:28.350Z,75.57
2022-10-04T17:05:22.463Z,75.47
2022-10-04T17:07:58.947Z,76.07
2022-10-04T17:11:27.854Z,75.45
2022-10-04T17:14:00.209Z,75.32
2022-10-04T17:16:38.722Z,75.37
2022-10-04T17:19:16.175Z,75.36
2022-10-04T17:21:46.206Z,75.09
2022-10-04T17:24:22.671Z,75.10
2022-10-04T17:27:18.979Z,74.64
2022-10-04T17:30:04.163Z,74.45
2022-10-04T17:33:07.607Z,74.60
2022-10-04T17:36:14.135Z,74.62
2022-10-04T17:39:07.569Z,74.56
2022-10-04T17:42:09.330Z,74.83
2022-10-04T17:44:49.432Z,74.17
2022-10-04T17:48:04.052Z,74.52
2022-10-04T17:51:04.902Z,74.16
2022-10-04T17:53:55.548Z,74.26
2022-10-04T17:56:43.171Z,74.22
2022-10-04T17:59:16.186Z,74.67
2022-10-04T18:01:49.042Z,74.53
2022-10-04T18:04:30.534Z,74.97
2022-10-04T18:07:08.904Z,74.83
2022-10-04T18:09:45.616Z,74.68
2022-10-04T18:12:31.506Z,74.76
2022-10-04T18:15:07.570Z,74.36
2022-10-04T18:17:40.603Z,74.46
2022-10-04T18:20:29.393Z,74.63
2022-10-04T18:23:02.661Z,74.66
2022-10-04T18:25:32.168Z,74.98
2022-10-04T18:28:13.324Z,74.97
2022-10-04T18:30:46.427Z,75.33
2022-10-04T18:33:26.156Z,75.32
2022-10-04T18:36:12.463Z,75.44
2022-10-04T18:38:42.864Z,75.38
2022-10-04T18:41:20.312Z,75.60
2022-10-04T18:43:52.347Z,75.74
2022-10-04T18:46:22.892Z,75.69
2022-10-04T18:49:01.662Z,75.66
2022-10-04T18:51:51.351Z,75.76
2022-10-04T18:54:33.971Z,75.84
2022-10-04T18:57:16.668Z,75.85
2022-10-04T19:00:20.367Z,75.92
2022-10-04T19:03:15.922Z,76.11
2022-10-04T19:06:15.286Z,76.04
2022-10-04T19:08:53.332Z,76.00
2022-10-04T19:11:24.126Z,76.37
2022-10-04T19:14:08.252Z,76.49
2022-10-04T19:16:41.679Z,76.92
2022-10-04T19:19:17.644Z,76.91
2022-10-04T19:21:45.233Z,76.66
2022-10-04T19:24:57.891Z,76.98
2022-10-04T19:27:30.426Z,77.26
2022-10-04T19:30:04.788Z,77.47
2022-10-04T19:32:57.678Z,77.51
2022-10-04T19:35:49.813Z,77.52
2022-10-04T19:38:41.866Z,77.45
2022-10-04T19:41:15.261Z,77.72
2022-10-04T19:44:05.844Z,77.71
2022-10-04T19:46:38.740Z,78.35
2022-10-04T19:49:21.367Z,77.81
2022-10-04T19:51:54.481Z,77.38
2022-10-04T19:54:35.693Z,77.61
2022-10-04T19:57:10.225Z,77.16
2022-10-04T19:59:40.903Z,77.67
2022-10-04T20:02:11.958Z,77.32
2022-10-04T20:04:40.200Z,77.48
2022-10-04T20:07:27.187Z,77.07
2022-10-04T20:10:06.464Z,77.63
2022-10-04T20:12:42.060Z,77.56
2022-10-04T20:15:13.447Z,77.56
2022-10-04T20:17:42.399Z,77.53
2022-10-04T20:20:15.778Z,77.62
2022-10-04T20:22:55.841Z,77.82
2022-10-04T20:25:45.561Z,77.30
2022-10-04T20:28:32.494Z,76.82
2022-10-04T20:31:02.001Z,77.10
2022-10-04T20:33:35.111Z,77.04
2022-10-04T20:36:02.491Z,76.74
2022-10-04T20:38:54.281Z,76.97
2022-10-04T20:41:50.342Z,77.09
2022-10-04T20:44:40.217Z,77.11
2022-10-04T20:47:39.615Z,77.39
2022-10-04T20:50:20.231Z,77.35
2022-10-04T20:52:53.283Z,77.61
2022-10-04T20:55:28.059Z,78.16
2022-10-04T20:58:01.018Z,78.14
2022-10-04T21:00:33.676Z,77.92
2022-10-04T21:03:09.830Z,78.07
2022-10-04T21:05:37.074Z,77.72
2022-10-04T21:08:21.588Z,78.28
2022-10-04T21:11:09.034Z,78.10
2022-10-04T21:13:52.872Z,78.48
2022-10-04T21:16:39.667Z,78.45
2022-10-04T21:19:43.020Z,78.49
2022-10-04T21:22:15.902Z,78.51
2022-10-04T21:24:48.906Z,78.68
2022-10-04T21:27:30.478Z,78.51
2022-10-04T21:29:59.025Z,78.54
2022-10-04T21:32:27.085Z,78.73
2022-10-04T21:34:54.924Z,78.42
2022-10-04T21:37:22.368Z,78.39
2022-10-04T21:39:49.209Z,78.65
2022-10-04T21:42:16.189Z,78.59
2022-10-04T21:44:43.469Z,79.03
2022-10-04T21:47:11.167Z,78.41
2022-10-04T21:49:37.937Z,78.45
2022-10-04T21:52:05.030Z,78.69
2022-10-04T21:54:32.026Z,78.89
2022-10-04T21:56:59.292Z,78.45
2022-10-04T21:59:26.308Z,78.57
2022-10-04T22:01:53.248Z,78.88
2022-10-04T22:04:20.185Z,79.01
2022-10-04T22:06:47.525Z,78.86
2022-10-04T22:09:14.598Z,78.80
2022-10-04T22:11:41.531Z,78.64
2022-10-04T22:14:08.457Z,79.34
2022-10-04T22:16:35.356Z,79.10
2022-10-04T22:19:02.369Z,79.49
2022-10-04T22:21:29.613Z,79.26
2022-10-04T22:23:56.725Z,79.43
2022-10-04T22:26:26.289Z,79.58
2022-10-04T22:28:55.544Z,79.71
2022-10-04T22:31:27.594Z,79.19
2022-10-04T22:33:55.201Z,79.57
2022-10-04T22:36:50.187Z,79.46
2022-10-04T22:39:19.592Z,79.44
2022-10-04T22:41:53.466Z,79.21
2022-10-04T22:44:29.577Z,79.47
2022-10-04T22:47:00.089Z,79.14
2022-10-04T22:49:31.350Z,79.28
2022-10-04T22:52:00.662Z,79.38
2022-10-04T22:54:32.120Z,79.36
2022-10-04T22:56:59.831Z,79.18
2022-10-04T22:59:39.400Z,79.14
2022-10-04T23:02:12.999Z,78.98
2022-10-04T23:04:41.440Z,79.34
2022-10-04T23:07:08.429Z,79.38
2022-10-04T23:09:35.189Z,79.14
2022-10-04T23:12:02.632Z,79.46
2022-10-04T23:14:29.467Z,79.11
2022-10-04T23:16:56.306Z,79.13
2022-10-04T23:19:23.229Z,78.73
2022-10-04T23:21:50.234Z,78.89
2022-10-04T23:24:19.316Z,78.45
2022-10-04T23:26:55.251Z,78.93
2022-10-04T23:29:25.842Z,78.76
2022-10-04T23:31:53.407Z,78.59
2022-10-04T23:34:28.890Z,78.54
2022-10-04T23:36:57.026Z,78.11
2022-10-04T23:39:28.619Z,78.56
2022-10-04T23:41:56.798Z,78.23
2022-10-04T23:44:27.136Z,77.70
2022-10-04T23:46:54.018Z,78.30
2022-10-04T23:49:22.798Z,78.32
2022-10-04T23:51:58.159Z,77.74
2022-10-04T23:54:26.373Z,78.32
2022-10-04T23:56:53.526Z,78.40
2022-10-04T23:59:23.921Z,78.43
